Mound House, Nevada
Current Conditions -  °F | °C
As of 7:55 AM on Friday 19 Dec 2014 (Local Time) from KCXP Reporting Station
Few Clouds Few Clouds  
Wind Chill: 29°   Ceiling: Unl
Heat Index: 36°   Visibility: 10mi
Dew Point: 21°   Wind: 9mph
Humidity: 56%   Direction: 110°ESE
Pressure: 30.06"   Gusts: NA
Location:  39.183°N, 119.605°W
Report Text: KCXP 191555Z AUTO 11008KT 10SM FEW050 02/M06 A3006 RMK AO2
Loading
Personal Weather Stations






























Interactive Weather Map New forecast layout! Learn more

10-Day Weather Forecast

Advertisements
Track Severe Weather on mobile